| time (UTC) | temp F | wind direction | speed MPH | gust MPH | rain 1hr in | rain 24hr in | rain mn in | humidity % | barometer mb |
| 20260903054504 | 53 | 285 | 4.0 | 6.0 | 0.00 | 0.03 | 0.03 | 79 | 1008.6 |
| 20260903053002 | 54 | 285 | 4.0 | 7.0 | 0.00 | 0.03 | 0.03 | 79 | 1008.3 |
| 20260903051502 | 55 | 276 | 6.0 | 11.0 | 0.00 | 0.03 | 0.03 | 77 | 1008.3 |
| 20260903050101 | 54 | 255 | 6.0 | 10.0 | 0.00 | 0.03 | 0.03 | 80 | 1008.2 |
| 20260903044601 | 54 | 270 | 4.0 | 6.0 | 0.00 | 0.04 | 0.03 | 81 | 1008.1 |
| 20260903043157 | 54 | 281 | 6.0 | 9.0 | 0.00 | 0.04 | 0.03 | 80 | 1007.8 |
| 20260903041603 | 54 | 274 | 2.0 | 5.0 | 0.00 | 0.04 | 0.03 | 82 | 1007.3 |
| 20260903040056 | 55 | 272 | 9.0 | 14.0 | 0.00 | 0.04 | 0.03 | 78 | 1007.7 |
| 20260903034555 | 56 | 287 | 8.0 | 13.0 | 0.00 | 0.04 | 0.03 | 75 | 1007.5 |
| 20260903033055 | 57 | 255 | 6.0 | 12.0 | 0.00 | 0.04 | 0.03 | 72 | 1007.4 |
| 20260903031558 | 58 | 262 | 7.0 | 11.0 | 0.00 | 0.04 | 0.03 | 70 | 1007.1 |
| 20260903030053 | 58 | 219 | 3.0 | 9.0 | 0.00 | 0.04 | 0.03 | 70 | 1006.7 |
| 20260903024552 | 58 | 171 | 6.0 | 11.0 | 0.00 | 0.04 | 0.03 | 69 | 1006.2 |
| 20260903023052 | 58 | 228 | 7.0 | 12.0 | 0.00 | 0.04 | 0.03 | 69 | 1006.1 |
| 20260903021551 | 59 | 223 | 7.0 | 11.0 | 0.00 | 0.04 | 0.03 | 69 | 1006.2 |
| 20260903020050 | 59 | 209 | 6.0 | 12.0 | 0.00 | 0.04 | 0.03 | 71 | 1006.2 |
| 20260903014650 | 59 | 174 | 3.0 | 8.0 | 0.00 | 0.04 | 0.03 | 75 | 1006.2 |
| 20260903013103 | 59 | 168 | 4.0 | 8.0 | 0.00 | 0.04 | 0.03 | 77 | 1006.2 |
| 20260903011549 | 59 | 216 | 3.0 | 8.0 | 0.00 | 0.04 | 0.03 | 77 | 1006.3 |
| 20260903010050 | 59 | 210 | 5.0 | 8.0 | 0.00 | 0.04 | 0.03 | 75 | 1006.4 |
| 20260903004548 | 59 | 176 | 3.0 | 11.0 | 0.00 | 0.04 | 0.03 | 75 | 1006.4 |
| 20260903003049 | 60 | 125 | 5.0 | 10.0 | 0.00 | 0.04 | 0.03 | 74 | 1006.4 |
| 20260903001546 | 60 | 217 | 5.0 | 9.0 | 0.00 | 0.04 | 0.03 | 73 | 1006.4 |
| 20260903000047 | 60 | 195 | 4.0 | 11.0 | 0.00 | 0.04 | 0.03 | 73 | 1006.4 |
| 20260902234602 | 61 | 260 | 6.0 | 14.0 | 0.00 | 0.04 | 0.03 | 69 | 1006.4 |
| 20260902233045 | 61 | 259 | 8.0 | 15.0 | 0.00 | 0.04 | 0.03 | 68 | 1006.4 |
| 20260902231544 | 61 | 246 | 7.0 | 14.0 | 0.00 | 0.04 | 0.03 | 67 | 1006.3 |
| 20260902230044 | 61 | 224 | 5.0 | 14.0 | 0.00 | 0.04 | 0.03 | 69 | 1006.1 |
| 20260902224605 | 60 | 225 | 6.0 | 14.0 | 0.00 | 0.04 | 0.03 | 69 | 1006.2 |
| 20260902223043 | 60 | 207 | 10.0 | 18.0 | 0.00 | 0.04 | 0.03 | 69 | 1006.0 |
| 20260902221542 | 60 | 229 | 7.0 | 13.0 | 0.00 | 0.04 | 0.03 | 70 | 1006.0 |
| 20260902220046 | 60 | 203 | 6.0 | 14.0 | 0.00 | 0.04 | 0.03 | 71 | 1006.1 |
| 20260902214540 | 60 | 205 | 9.0 | 16.0 | 0.00 | 0.04 | 0.03 | 70 | 1005.9 |
| 20260902213040 | 60 | 161 | 2.0 | 5.0 | 0.00 | 0.04 | 0.03 | 74 | 1006.1 |
| 20260902211540 | 59 | 150 | 1.0 | 4.0 | 0.00 | 0.04 | 0.03 | 75 | 1006.2 |
| 20260902210038 | 59 | 262 | 1.0 | 5.0 | 0.01 | 0.04 | 0.03 | 75 | 1006.1 |
| 20260902204541 | 59 | 213 | 2.0 | 7.0 | 0.02 | 0.04 | 0.03 | 75 | 1006.3 |
| 20260902203037 | 59 | 257 | 3.0 | 7.0 | 0.02 | 0.04 | 0.03 | 76 | 1006.4 |
| 20260902201547 | 58 | 205 | 3.0 | 7.0 | 0.03 | 0.04 | 0.03 | 75 | 1006.4 |
| 20260902200050 | 59 | 215 | 3.0 | 9.0 | 0.02 | 0.03 | 0.02 | 72 | 1006.3 |
| 20260902194534 | 60 | 251 | 3.0 | 9.0 | 0.01 | 0.02 | 0.01 | 70 | 1006.4 |
| 20260902193034 | 60 | 258 | 5.0 | 9.0 | 0.01 | 0.02 | 0.01 | 69 | 1006.4 |
| 20260902191535 | 59 | 241 | 3.0 | 6.0 | 0.00 | 0.01 | 0.00 | 72 | 1006.3 |
| 20260902190047 | 59 | 275 | 5.0 | 12.0 | 0.00 | 0.01 | 0.00 | 71 | 1006.4 |
| 20260902184533 | 61 | 226 | 8.0 | 13.0 | 0.00 | 0.01 | 0.00 | 62 | 1006.1 |
| 20260902183031 | 64 | 264 | 10.0 | 16.0 | 0.00 | 0.01 | 0.00 | 53 | 1006.0 |
| 20260902181533 | 67 | 216 | 8.0 | 17.0 | 0.00 | 0.01 | 0.00 | 44 | 1005.6 |
| 20260902180028 | 68 | 213 | 7.0 | 15.0 | 0.00 | 0.01 | 0.00 | 45 | 1005.5 |
| 20260902174525 | 65 | 143 | 4.0 | 10.0 | 0.00 | 0.01 | 0.00 | 51 | 1005.5 |
| 20260902173021 | 65 | 37 | 0.0 | 6.0 | 0.00 | 0.01 | 0.00 | 54 | 1005.7 |
| 20260902171519 | 63 | 51 | 3.0 | 6.0 | 0.00 | 0.01 | 0.00 | 55 | 1006.0 |
| 20260902170015 | 63 | 73 | 1.0 | 7.0 | 0.00 | 0.01 | 0.00 | 58 | 1006.3 |
| 20260902164515 | 62 | 84 | 3.0 | 5.0 | 0.00 | 0.01 | 0.00 | 57 | 1006.4 |
| 20260902163010 | 62 | 102 | 3.0 | 6.0 | 0.00 | 0.01 | 0.00 | 59 | 1006.5 |
| 20260902161510 | 61 | 131 | 1.0 | 6.0 | 0.00 | 0.01 | 0.00 | 61 | 1006.6 |
| 20260902160009 | 60 | 108 | 2.0 | 6.0 | 0.00 | 0.01 | 0.00 | 62 | 1006.7 |
| 20260902154503 | 60 | 126 | 4.0 | 7.0 | 0.00 | 0.01 | 0.00 | 65 | 1006.9 |
| 20260902153100 | 58 | 126 | 4.0 | 6.0 | 0.00 | 0.01 | 0.00 | 69 | 1007.1 |
| 20260902151600 | 57 | 135 | 0.0 | 0.0 | 0.00 | 0.01 | 0.00 | 71 | 1007.1 |
| 20260902150057 | 55 | 139 | 0.0 | 0.0 | 0.00 | 0.01 | 0.00 | 73 | 1007.3 |
| 20260902144556 | 54 | 137 | 0.0 | 2.0 | 0.00 | 0.01 | 0.00 | 75 | 1007.4 |
| 20260902143056 | 53 | 129 | 1.0 | 2.0 | 0.00 | 0.01 | 0.00 | 78 | 1007.6 |
| 20260902141559 | 53 | 233 | 0.0 | 0.0 | 0.00 | 0.01 | 0.00 | 76 | 1007.5 |
| 20260902140053 | 0 | 0.0 | 0.0 | 0.00 | 0.01 | 0.00 | 1007.6 | ||
| 20260902134547 | 0 | 0.0 | 0.0 | 0.00 | 0.07 | 0.00 | 1007.7 | ||
| 20260902133046 | 0 | 0.0 | 0.0 | 0.00 | 0.07 | 0.00 | 1007.9 | ||
| 20260902131541 | 51 | 240 | 1.0 | 4.0 | 0.00 | 0.07 | 0.00 | 77 | 1007.8 |
| 20260902130041 | 50 | 266 | 2.0 | 5.0 | 0.00 | 0.07 | 0.00 | 79 | 1007.8 |
| 20260902124541 | 50 | 240 | 1.0 | 3.0 | 0.00 | 0.07 | 0.00 | 78 | 1008.0 |
| 20260902123037 | 51 | 221 | 1.0 | 3.0 | 0.00 | 0.07 | 0.00 | 76 | 1008.1 |
| 20260902121534 | 52 | 278 | 1.0 | 3.0 | 0.00 | 0.07 | 0.00 | 75 | 1008.0 |
| 20260902120030 | 51 | 280 | 2.0 | 4.0 | 0.00 | 0.07 | 0.00 | 76 | 1008.2 |
| 20260902114534 | 52 | 281 | 3.0 | 5.0 | 0.00 | 0.07 | 0.00 | 75 | 1008.2 |
| 20260902113026 | 54 | 271 | 2.0 | 7.0 | 0.00 | 0.07 | 0.00 | 72 | 1008.2 |
| 20260902111531 | 55 | 241 | 2.0 | 6.0 | 0.00 | 0.07 | 0.00 | 72 | 1008.3 |
| 20260902110018 | 55 | 278 | 3.0 | 8.0 | 0.00 | 0.07 | 0.00 | 71 | 1008.3 |
| 20260902104523 | 55 | 255 | 3.0 | 7.0 | 0.00 | 0.07 | 0.00 | 70 | 1008.1 |
| 20260902103013 | 56 | 248 | 5.0 | 9.0 | 0.00 | 0.07 | 0.00 | 69 | 1008.0 |
| 20260902101512 | 56 | 260 | 6.0 | 11.0 | 0.00 | 0.07 | 0.00 | 69 | 1008.0 |
| 20260902100009 | 57 | 250 | 7.0 | 12.0 | 0.00 | 0.07 | 0.00 | 68 | 1008.2 |
| 20260902094517 | 57 | 269 | 7.0 | 11.0 | 0.00 | 0.07 | 0.00 | 68 | 1008.1 |
| 20260902093005 | 58 | 259 | 8.0 | 12.0 | 0.00 | 0.07 | 0.00 | 67 | 1008.4 |
| 20260902091505 | 58 | 268 | 8.0 | 11.0 | 0.00 | 0.07 | 0.00 | 67 | 1008.4 |
| 20260902090004 | 58 | 255 | 7.0 | 10.0 | 0.00 | 0.07 | 0.00 | 66 | 1008.4 |
| 20260902084503 | 58 | 267 | 6.0 | 11.0 | 0.00 | 0.07 | 0.00 | 66 | 1008.3 |
| 20260902083002 | 58 | 263 | 6.0 | 11.0 | 0.00 | 0.07 | 0.00 | 66 | 1008.2 |
| 20260902081506 | 58 | 256 | 7.0 | 10.0 | 0.00 | 0.07 | 0.00 | 67 | 1008.1 |
| 20260902080109 | 58 | 258 | 6.0 | 10.0 | 0.00 | 0.07 | 0.00 | 67 | 1008.3 |
| 20260902074559 | 58 | 258 | 5.0 | 8.0 | 0.00 | 0.07 | 0.00 | 67 | 1008.4 |
| 20260902073058 | 58 | 263 | 7.0 | 15.0 | 0.00 | 0.07 | 0.00 | 66 | 1008.4 |
| 20260902071558 | 58 | 273 | 9.0 | 14.0 | 0.00 | 0.07 | 0.00 | 66 | 1008.3 |
| 20260902070059 | 58 | 283 | 7.0 | 12.0 | 0.00 | 0.07 | 0.00 | 65 | 1008.6 |
| 20260902064601 | 58 | 287 | 7.0 | 10.0 | 0.00 | 0.07 | 0.07 | 65 | 1008.8 |
| 20260902063050 | 59 | 300 | 6.0 | 13.0 | 0.00 | 0.07 | 0.07 | 65 | 1008.9 |
| 20260902061600 | 59 | 288 | 9.0 | 14.0 | 0.00 | 0.07 | 0.07 | 66 | 1008.8 |
| 20260902060047 | 60 | 285 | 15.0 | 22.0 | 0.00 | 0.07 | 0.07 | 65 | 1008.5 |
| 20260902054552 | 60 | 288 | 14.0 | 20.0 | 0.00 | 0.07 | 0.07 | 65 | 1008.6 |